sensor_id;sensor_type;location;lat;lon;timestamp;pressure;altitude;pressure_sealevel;temperature;humidity
21988;BME280;11158;53.404;-1.510;2022-10-16T00:01:18;98857.44;;;12.53;59.24
21988;BME280;11158;53.404;-1.510;2022-10-16T00:03:45;98847.47;;;12.77;58.75
21988;BME280;11158;53.404;-1.510;2022-10-16T00:06:11;98847.72;;;12.64;58.78
21988;BME280;11158;53.404;-1.510;2022-10-16T00:08:38;98838.09;;;12.51;58.99
21988;BME280;11158;53.404;-1.510;2022-10-16T00:11:21;98850.31;;;12.59;58.88
21988;BME280;11158;53.404;-1.510;2022-10-16T00:13:49;98848.09;;;12.56;58.66
21988;BME280;11158;53.404;-1.510;2022-10-16T00:16:16;98846.81;;;13.11;58.04
21988;BME280;11158;53.404;-1.510;2022-10-16T00:18:41;98825.00;;;13.07;58.18
21988;BME280;11158;53.404;-1.510;2022-10-16T00:21:16;98830.59;;;12.65;59.83
21988;BME280;11158;53.404;-1.510;2022-10-16T00:23:42;98827.59;;;12.50;60.69
21988;BME280;11158;53.404;-1.510;2022-10-16T00:26:11;98811.06;;;12.18;61.36
21988;BME280;11158;53.404;-1.510;2022-10-16T00:28:38;98838.19;;;11.98;62.51
21988;BME280;11158;53.404;-1.510;2022-10-16T00:31:05;98838.66;;;12.06;62.23
21988;BME280;11158;53.404;-1.510;2022-10-16T00:33:32;98851.53;;;11.86;62.66
21988;BME280;11158;53.404;-1.510;2022-10-16T00:35:59;98840.19;;;12.38;61.10
21988;BME280;11158;53.404;-1.510;2022-10-16T00:38:24;98846.59;;;12.36;61.23
21988;BME280;11158;53.404;-1.510;2022-10-16T00:40:50;98844.47;;;12.50;60.50
21988;BME280;11158;53.404;-1.510;2022-10-16T00:46:36;98842.06;;;12.49;60.00
21988;BME280;11158;53.404;-1.510;2022-10-16T00:51:37;98851.72;;;12.26;60.99
21988;BME280;11158;53.404;-1.510;2022-10-16T00:54:08;98847.88;;;12.34;60.67
21988;BME280;11158;53.404;-1.510;2022-10-16T00:56:35;98852.38;;;12.81;59.44
21988;BME280;11158;53.404;-1.510;2022-10-16T00:59:18;98845.09;;;12.17;60.82
21988;BME280;11158;53.404;-1.510;2022-10-16T01:01:45;98860.53;;;11.91;61.64
21988;BME280;11158;53.404;-1.510;2022-10-16T01:04:11;98848.56;;;12.18;61.14
21988;BME280;11158;53.404;-1.510;2022-10-16T01:06:48;98876.31;;;12.23;60.89
21988;BME280;11158;53.404;-1.510;2022-10-16T01:09:21;98852.63;;;12.20;60.72
21988;BME280;11158;53.404;-1.510;2022-10-16T01:12:10;98872.31;;;12.73;59.76
21988;BME280;11158;53.404;-1.510;2022-10-16T01:15:01;98862.22;;;12.40;60.46
21988;BME280;11158;53.404;-1.510;2022-10-16T01:17:43;98871.66;;;12.19;60.71
21988;BME280;11158;53.404;-1.510;2022-10-16T01:20:42;98888.97;;;12.16;60.95
21988;BME280;11158;53.404;-1.510;2022-10-16T01:29:09;98884.34;;;12.47;60.03
21988;BME280;11158;53.404;-1.510;2022-10-16T01:31:41;98886.88;;;12.18;60.37
21988;BME280;11158;53.404;-1.510;2022-10-16T01:34:16;98895.88;;;12.24;59.83
21988;BME280;11158;53.404;-1.510;2022-10-16T01:36:53;98910.78;;;12.31;59.65
21988;BME280;11158;53.404;-1.510;2022-10-16T01:39:22;98905.88;;;12.17;59.69
21988;BME280;11158;53.404;-1.510;2022-10-16T01:41:55;98901.59;;;12.51;58.15
21988;BME280;11158;53.404;-1.510;2022-10-16T01:44:32;98910.22;;;12.53;57.90
21988;BME280;11158;53.404;-1.510;2022-10-16T01:46:59;98903.31;;;12.57;57.85
21988;BME280;11158;53.404;-1.510;2022-10-16T01:49:28;98910.91;;;12.72;57.41
21988;BME280;11158;53.404;-1.510;2022-10-16T01:51:59;98916.63;;;12.52;57.62
21988;BME280;11158;53.404;-1.510;2022-10-16T01:54:27;98926.03;;;12.19;58.41
21988;BME280;11158;53.404;-1.510;2022-10-16T01:56:57;98936.19;;;12.41;57.67
21988;BME280;11158;53.404;-1.510;2022-10-16T01:59:26;98927.44;;;12.57;57.74
21988;BME280;11158;53.404;-1.510;2022-10-16T02:01:59;98932.47;;;12.42;58.20
21988;BME280;11158;53.404;-1.510;2022-10-16T02:06:55;98948.28;;;12.43;58.03
21988;BME280;11158;53.404;-1.510;2022-10-16T02:09:21;98943.50;;;12.33;58.05
21988;BME280;11158;53.404;-1.510;2022-10-16T02:11:46;98955.09;;;12.57;57.46
21988;BME280;11158;53.404;-1.510;2022-10-16T02:14:14;98952.38;;;12.46;57.52
21988;BME280;11158;53.404;-1.510;2022-10-16T02:16:43;98971.28;;;12.51;57.06
21988;BME280;11158;53.404;-1.510;2022-10-16T02:19:09;98965.88;;;12.27;58.00
21988;BME280;11158;53.404;-1.510;2022-10-16T02:26:45;98982.59;;;12.53;57.47
21988;BME280;11158;53.404;-1.510;2022-10-16T02:29:17;98994.25;;;12.82;56.21
21988;BME280;11158;53.404;-1.510;2022-10-16T02:31:47;98991.78;;;12.57;56.85
21988;BME280;11158;53.404;-1.510;2022-10-16T02:34:18;99001.69;;;12.56;56.77
21988;BME280;11158;53.404;-1.510;2022-10-16T02:36:48;99008.44;;;12.59;57.06
21988;BME280;11158;53.404;-1.510;2022-10-16T02:39:16;99006.00;;;12.57;57.32
21988;BME280;11158;53.404;-1.510;2022-10-16T02:41:43;99016.69;;;12.46;57.75
21988;BME280;11158;53.404;-1.510;2022-10-16T02:44:09;99013.47;;;12.67;56.76
21988;BME280;11158;53.404;-1.510;2022-10-16T02:46:35;99020.03;;;12.71;57.20
21988;BME280;11158;53.404;-1.510;2022-10-16T02:49:00;99028.72;;;12.55;57.82
21988;BME280;11158;53.404;-1.510;2022-10-16T02:51:26;99034.72;;;12.81;57.13
21988;BME280;11158;53.404;-1.510;2022-10-16T02:53:52;99026.75;;;12.62;57.83
21988;BME280;11158;53.404;-1.510;2022-10-16T02:56:18;99025.22;;;12.54;57.91
21988;BME280;11158;53.404;-1.510;2022-10-16T02:58:44;99037.22;;;12.52;57.93
21988;BME280;11158;53.404;-1.510;2022-10-16T03:01:09;99040.31;;;12.91;57.08
21988;BME280;11158;53.404;-1.510;2022-10-16T03:03:35;99052.22;;;12.95;56.79
21988;BME280;11158;53.404;-1.510;2022-10-16T03:06:01;99060.38;;;13.00;57.06
21988;BME280;11158;53.404;-1.510;2022-10-16T03:08:27;99065.03;;;13.16;55.79
21988;BME280;11158;53.404;-1.510;2022-10-16T03:10:53;99067.13;;;13.14;56.19
21988;BME280;11158;53.404;-1.510;2022-10-16T03:13:18;99081.22;;;13.21;56.01
21988;BME280;11158;53.404;-1.510;2022-10-16T03:15:45;99088.97;;;13.30;56.14
21988;BME280;11158;53.404;-1.510;2022-10-16T03:18:11;99082.41;;;13.26;56.11
21988;BME280;11158;53.404;-1.510;2022-10-16T03:20:37;99083.59;;;13.53;55.27
21988;BME280;11158;53.404;-1.510;2022-10-16T03:23:03;99087.66;;;12.97;56.11
21988;BME280;11158;53.404;-1.510;2022-10-16T03:25:29;99097.31;;;12.86;56.76
21988;BME280;11158;53.404;-1.510;2022-10-16T03:27:54;99107.94;;;13.16;56.54
21988;BME280;11158;53.404;-1.510;2022-10-16T03:30:20;99100.44;;;12.71;57.55
21988;BME280;11158;53.404;-1.510;2022-10-16T03:32:46;99107.09;;;12.39;57.72
21988;BME280;11158;53.404;-1.510;2022-10-16T03:35:12;99128.09;;;12.42;57.79
21988;BME280;11158;53.404;-1.510;2022-10-16T03:37:38;99135.97;;;12.36;58.12
21988;BME280;11158;53.404;-1.510;2022-10-16T03:40:05;99132.69;;;12.34;57.63
21988;BME280;11158;53.404;-1.510;2022-10-16T03:42:31;99147.25;;;12.57;56.94
21988;BME280;11158;53.404;-1.510;2022-10-16T03:44:57;99149.69;;;12.28;57.43
21988;BME280;11158;53.404;-1.510;2022-10-16T03:47:22;99154.50;;;12.68;56.35
21988;BME280;11158;53.404;-1.510;2022-10-16T03:49:49;99166.38;;;12.30;56.95
21988;BME280;11158;53.404;-1.510;2022-10-16T03:52:15;99165.44;;;12.36;56.85
21988;BME280;11158;53.404;-1.510;2022-10-16T03:54:41;99177.50;;;12.46;57.17
21988;BME280;11158;53.404;-1.510;2022-10-16T03:57:07;99187.81;;;12.30;56.98
21988;BME280;11158;53.404;-1.510;2022-10-16T03:59:33;99197.75;;;12.42;57.31
21988;BME280;11158;53.404;-1.510;2022-10-16T04:01:59;99202.50;;;12.58;56.81
21988;BME280;11158;53.404;-1.510;2022-10-16T04:04:24;99200.75;;;12.33;57.65
21988;BME280;11158;53.404;-1.510;2022-10-16T04:06:51;99212.72;;;11.94;58.42
21988;BME280;11158;53.404;-1.510;2022-10-16T04:09:18;99220.09;;;12.17;57.48
21988;BME280;11158;53.404;-1.510;2022-10-16T04:11:44;99234.84;;;12.08;57.38
21988;BME280;11158;53.404;-1.510;2022-10-16T04:14:10;99236.91;;;11.81;57.72
21988;BME280;11158;53.404;-1.510;2022-10-16T04:16:35;99238.47;;;12.32;56.51
21988;BME280;11158;53.404;-1.510;2022-10-16T04:19:01;99237.19;;;12.16;56.37
21988;BME280;11158;53.404;-1.510;2022-10-16T04:21:27;99244.47;;;11.90;56.98
21988;BME280;11158;53.404;-1.510;2022-10-16T04:23:53;99259.28;;;12.11;56.72
21988;BME280;11158;53.404;-1.510;2022-10-16T04:26:20;99269.34;;;12.16;56.22
21988;BME280;11158;53.404;-1.510;2022-10-16T04:28:46;99275.69;;;12.40;55.63
21988;BME280;11158;53.404;-1.510;2022-10-16T04:31:12;99286.75;;;11.82;57.92
21988;BME280;11158;53.404;-1.510;2022-10-16T04:33:37;99297.31;;;12.02;57.41
21988;BME280;11158;53.404;-1.510;2022-10-16T04:36:03;99299.31;;;11.81;58.16
21988;BME280;11158;53.404;-1.510;2022-10-16T04:38:29;99302.91;;;11.43;59.30
21988;BME280;11158;53.404;-1.510;2022-10-16T04:40:55;99310.63;;;11.58;59.00
21988;BME280;11158;53.404;-1.510;2022-10-16T04:43:21;99317.22;;;11.56;59.31
21988;BME280;11158;53.404;-1.510;2022-10-16T04:45:47;99324.88;;;11.77;58.52
21988;BME280;11158;53.404;-1.510;2022-10-16T04:48:13;99326.38;;;11.41;59.48
21988;BME280;11158;53.404;-1.510;2022-10-16T04:50:39;99331.13;;;11.71;58.85
21988;BME280;11158;53.404;-1.510;2022-10-16T04:53:05;99336.47;;;11.71;58.77
21988;BME280;11158;53.404;-1.510;2022-10-16T04:55:31;99335.88;;;11.37;59.50
21988;BME280;11158;53.404;-1.510;2022-10-16T04:57:59;99352.19;;;11.61;58.78
21988;BME280;11158;53.404;-1.510;2022-10-16T05:00:24;99345.25;;;11.53;58.74
21988;BME280;11158;53.404;-1.510;2022-10-16T05:02:51;99357.53;;;11.61;58.45
21988;BME280;11158;53.404;-1.510;2022-10-16T05:05:17;99351.19;;;11.23;59.77
21988;BME280;11158;53.404;-1.510;2022-10-16T05:07:45;99351.16;;;11.62;59.10
21988;BME280;11158;53.404;-1.510;2022-10-16T05:10:11;99361.47;;;11.58;59.04
21988;BME280;11158;53.404;-1.510;2022-10-16T05:12:37;99366.47;;;11.09;60.21
21988;BME280;11158;53.404;-1.510;2022-10-16T05:15:03;99369.06;;;11.29;59.41
21988;BME280;11158;53.404;-1.510;2022-10-16T05:17:29;99367.88;;;11.19;59.53
21988;BME280;11158;53.404;-1.510;2022-10-16T05:19:55;99378.31;;;11.27;59.17
21988;BME280;11158;53.404;-1.510;2022-10-16T05:22:21;99374.09;;;11.44;58.94
21988;BME280;11158;53.404;-1.510;2022-10-16T05:24:46;99383.09;;;11.18;59.27
21988;BME280;11158;53.404;-1.510;2022-10-16T05:27:12;99391.19;;;10.98;59.73
21988;BME280;11158;53.404;-1.510;2022-10-16T05:29:47;99406.03;;;10.94;60.09
21988;BME280;11158;53.404;-1.510;2022-10-16T05:32:14;99412.47;;;10.73;60.53
21988;BME280;11158;53.404;-1.510;2022-10-16T05:34:42;99410.59;;;10.74;60.34
21988;BME280;11158;53.404;-1.510;2022-10-16T05:37:08;99426.16;;;11.03;59.41
21988;BME280;11158;53.404;-1.510;2022-10-16T05:39:34;99421.22;;;11.07;58.68
21988;BME280;11158;53.404;-1.510;2022-10-16T05:41:59;99425.69;;;11.13;58.55
21988;BME280;11158;53.404;-1.510;2022-10-16T05:44:25;99441.78;;;11.06;58.22
21988;BME280;11158;53.404;-1.510;2022-10-16T05:46:51;99429.44;;;11.05;58.47
21988;BME280;11158;53.404;-1.510;2022-10-16T05:49:17;99434.28;;;10.57;60.16
21988;BME280;11158;53.404;-1.510;2022-10-16T05:51:43;99436.00;;;11.09;58.60
21988;BME280;11158;53.404;-1.510;2022-10-16T05:54:08;99445.31;;;10.87;58.92
21988;BME280;11158;53.404;-1.510;2022-10-16T05:56:34;99452.72;;;10.85;58.85
21988;BME280;11158;53.404;-1.510;2022-10-16T05:58:59;99453.16;;;10.75;58.51
21988;BME280;11158;53.404;-1.510;2022-10-16T06:01:25;99467.75;;;10.86;58.56
21988;BME280;11158;53.404;-1.510;2022-10-16T06:03:51;99470.19;;;11.01;58.08
21988;BME280;11158;53.404;-1.510;2022-10-16T06:06:21;99472.50;;;10.77;57.70
21988;BME280;11158;53.404;-1.510;2022-10-16T06:08:48;99478.34;;;11.26;56.78
21988;BME280;11158;53.404;-1.510;2022-10-16T06:11:18;99473.38;;;11.36;55.88
21988;BME280;11158;53.404;-1.510;2022-10-16T06:13:58;99487.50;;;10.65;57.73
21988;BME280;11158;53.404;-1.510;2022-10-16T06:16:26;99483.72;;;11.13;56.82
21988;BME280;11158;53.404;-1.510;2022-10-16T06:18:53;99480.31;;;10.65;57.69
21988;BME280;11158;53.404;-1.510;2022-10-16T06:21:21;99483.34;;;11.02;56.80
21988;BME280;11158;53.404;-1.510;2022-10-16T06:23:47;99493.66;;;10.85;56.98
21988;BME280;11158;53.404;-1.510;2022-10-16T06:26:16;99498.22;;;10.58;58.01
21988;BME280;11158;53.404;-1.510;2022-10-16T06:28:42;99505.19;;;10.59;57.93
21988;BME280;11158;53.404;-1.510;2022-10-16T06:31:09;99502.72;;;10.84;57.29
21988;BME280;11158;53.404;-1.510;2022-10-16T06:33:36;99508.44;;;11.01;56.59
21988;BME280;11158;53.404;-1.510;2022-10-16T06:36:07;99513.31;;;11.18;55.95
21988;BME280;11158;53.404;-1.510;2022-10-16T06:38:34;99517.94;;;10.57;57.29
21988;BME280;11158;53.404;-1.510;2022-10-16T06:41:00;99523.22;;;11.04;56.45
21988;BME280;11158;53.404;-1.510;2022-10-16T06:43:26;99533.56;;;10.87;56.74
21988;BME280;11158;53.404;-1.510;2022-10-16T06:45:56;99535.59;;;10.92;57.07
21988;BME280;11158;53.404;-1.510;2022-10-16T06:48:26;99541.38;;;10.88;56.87
21988;BME280;11158;53.404;-1.510;2022-10-16T06:50:59;99538.91;;;10.54;58.11
21988;BME280;11158;53.404;-1.510;2022-10-16T06:53:29;99549.59;;;10.60;57.46
21988;BME280;11158;53.404;-1.510;2022-10-16T06:55:55;99553.50;;;10.78;57.20
21988;BME280;11158;53.404;-1.510;2022-10-16T06:58:21;99557.84;;;10.72;57.20
21988;BME280;11158;53.404;-1.510;2022-10-16T07:00:47;99561.91;;;11.01;56.31
21988;BME280;11158;53.404;-1.510;2022-10-16T07:03:13;99553.69;;;10.96;56.70
21988;BME280;11158;53.404;-1.510;2022-10-16T07:05:41;99570.16;;;10.60;57.88
21988;BME280;11158;53.404;-1.510;2022-10-16T07:08:08;99570.09;;;11.26;56.03
21988;BME280;11158;53.404;-1.510;2022-10-16T07:10:35;99575.69;;;11.25;55.47
21988;BME280;11158;53.404;-1.510;2022-10-16T07:13:01;99575.44;;;11.33;55.42
21988;BME280;11158;53.404;-1.510;2022-10-16T07:15:27;99586.94;;;11.47;55.05
21988;BME280;11158;53.404;-1.510;2022-10-16T07:17:53;99601.63;;;11.04;56.06
21988;BME280;11158;53.404;-1.510;2022-10-16T07:20:20;99606.38;;;11.02;56.36
21988;BME280;11158;53.404;-1.510;2022-10-16T07:22:45;99593.59;;;10.78;56.96
21988;BME280;11158;53.404;-1.510;2022-10-16T07:25:11;99598.53;;;11.07;56.45
21988;BME280;11158;53.404;-1.510;2022-10-16T07:27:38;99607.34;;;11.41;55.45
21988;BME280;11158;53.404;-1.510;2022-10-16T07:30:04;99619.94;;;11.21;56.14
21988;BME280;11158;53.404;-1.510;2022-10-16T07:32:31;99619.66;;;11.62;55.38
21988;BME280;11158;53.404;-1.510;2022-10-16T07:34:57;99619.00;;;11.73;54.68
21988;BME280;11158;53.404;-1.510;2022-10-16T07:37:23;99610.41;;;11.51;54.89
21988;BME280;11158;53.404;-1.510;2022-10-16T07:39:48;99621.47;;;11.75;55.13
21988;BME280;11158;53.404;-1.510;2022-10-16T07:42:14;99626.28;;;11.33;55.67
21988;BME280;11158;53.404;-1.510;2022-10-16T07:44:40;99637.81;;;11.27;55.71
21988;BME280;11158;53.404;-1.510;2022-10-16T07:47:06;99647.19;;;11.89;54.34
21988;BME280;11158;53.404;-1.510;2022-10-16T07:49:32;99654.78;;;11.99;54.21
21988;BME280;11158;53.404;-1.510;2022-10-16T07:51:58;99655.19;;;12.03;54.49
21988;BME280;11158;53.404;-1.510;2022-10-16T07:54:24;99663.41;;;12.08;53.90
21988;BME280;11158;53.404;-1.510;2022-10-16T07:56:49;99659.81;;;11.56;54.99
21988;BME280;11158;53.404;-1.510;2022-10-16T07:59:15;99672.09;;;11.83;54.58
21988;BME280;11158;53.404;-1.510;2022-10-16T08:01:41;99678.44;;;12.54;52.75
21988;BME280;11158;53.404;-1.510;2022-10-16T08:04:10;99675.56;;;12.10;52.83
21988;BME280;11158;53.404;-1.510;2022-10-16T08:06:37;99685.00;;;12.20;53.44
21988;BME280;11158;53.404;-1.510;2022-10-16T08:09:03;99689.31;;;12.66;52.48
21988;BME280;11158;53.404;-1.510;2022-10-16T08:11:29;99688.91;;;12.24;52.83
21988;BME280;11158;53.404;-1.510;2022-10-16T08:13:55;99702.44;;;12.35;53.09
21988;BME280;11158;53.404;-1.510;2022-10-16T08:16:21;99708.94;;;12.08;53.68
21988;BME280;11158;53.404;-1.510;2022-10-16T08:18:47;99700.69;;;12.61;52.28
21988;BME280;11158;53.404;-1.510;2022-10-16T08:21:15;99719.75;;;12.78;51.58
21988;BME280;11158;53.404;-1.510;2022-10-16T08:23:41;99712.75;;;12.39;52.91
21988;BME280;11158;53.404;-1.510;2022-10-16T08:26:08;99720.16;;;12.82;51.90
21988;BME280;11158;53.404;-1.510;2022-10-16T08:28:35;99730.44;;;12.85;52.55
21988;BME280;11158;53.404;-1.510;2022-10-16T08:31:09;99736.72;;;12.72;52.00
21988;BME280;11158;53.404;-1.510;2022-10-16T08:33:35;99739.59;;;13.09;51.41
21988;BME280;11158;53.404;-1.510;2022-10-16T08:36:02;99741.28;;;13.03;51.85
21988;BME280;11158;53.404;-1.510;2022-10-16T08:38:28;99747.19;;;12.42;52.29
21988;BME280;11158;53.404;-1.510;2022-10-16T08:48:59;99764.75;;;14.33;48.62
21988;BME280;11158;53.404;-1.510;2022-10-16T08:51:29;99772.19;;;14.13;48.55
21988;BME280;11158;53.404;-1.510;2022-10-16T08:54:04;99781.78;;;14.45;48.58
21988;BME280;11158;53.404;-1.510;2022-10-16T08:56:30;99782.59;;;14.83;47.27
21988;BME280;11158;53.404;-1.510;2022-10-16T08:58:57;99799.97;;;14.07;48.71
21988;BME280;11158;53.404;-1.510;2022-10-16T09:01:29;99798.63;;;14.59;48.03
21988;BME280;11158;53.404;-1.510;2022-10-16T09:04:22;99805.81;;;14.96;47.19
21988;BME280;11158;53.404;-1.510;2022-10-16T09:07:02;99800.97;;;14.68;47.25
21988;BME280;11158;53.404;-1.510;2022-10-16T09:09:45;99813.38;;;13.88;49.55
21988;BME280;11158;53.404;-1.510;2022-10-16T09:12:21;99814.44;;;14.68;48.31
21988;BME280;11158;53.404;-1.510;2022-10-16T09:18:10;99827.19;;;14.91;48.05
21988;BME280;11158;53.404;-1.510;2022-10-16T09:23:29;99835.50;;;15.49;44.97
21988;BME280;11158;53.404;-1.510;2022-10-16T09:25:58;99844.91;;;15.28;45.67
21988;BME280;11158;53.404;-1.510;2022-10-16T09:28:24;99834.53;;;14.65;46.41
21988;BME280;11158;53.404;-1.510;2022-10-16T09:30:50;99842.41;;;14.23;47.46
21988;BME280;11158;53.404;-1.510;2022-10-16T09:33:19;99837.94;;;15.39;45.44
21988;BME280;11158;53.404;-1.510;2022-10-16T09:35:51;99843.59;;;15.61;44.62
21988;BME280;11158;53.404;-1.510;2022-10-16T09:40:51;99857.28;;;15.90;43.71
21988;BME280;11158;53.404;-1.510;2022-10-16T09:43:23;99850.84;;;16.03;43.95
21988;BME280;11158;53.404;-1.510;2022-10-16T09:45:56;99854.69;;;15.72;44.25
21988;BME280;11158;53.404;-1.510;2022-10-16T09:48:26;99866.72;;;15.39;44.42
21988;BME280;11158;53.404;-1.510;2022-10-16T09:51:02;99861.88;;;14.99;45.52
21988;BME280;11158;53.404;-1.510;2022-10-16T09:53:48;99866.81;;;15.62;44.78
21988;BME280;11158;53.404;-1.510;2022-10-16T09:56:31;99867.91;;;15.43;44.14
21988;BME280;11158;53.404;-1.510;2022-10-16T10:01:40;99872.84;;;15.76;43.49
21988;BME280;11158;53.404;-1.510;2022-10-16T10:04:07;99880.94;;;15.88;43.86
21988;BME280;11158;53.404;-1.510;2022-10-16T10:06:35;99880.75;;;16.01;43.49
21988;BME280;11158;53.404;-1.510;2022-10-16T10:11:42;99892.78;;;15.57;45.18
21988;BME280;11158;53.404;-1.510;2022-10-16T10:14:25;99891.31;;;15.42;44.70
21988;BME280;11158;53.404;-1.510;2022-10-16T10:17:02;99891.38;;;15.24;44.93
21988;BME280;11158;53.404;-1.510;2022-10-16T10:19:28;99896.19;;;14.85;45.70
21988;BME280;11158;53.404;-1.510;2022-10-16T10:21:54;99896.25;;;14.97;45.53
21988;BME280;11158;53.404;-1.510;2022-10-16T10:24:19;99903.06;;;14.37;46.61
21988;BME280;11158;53.404;-1.510;2022-10-16T10:27:08;99900.31;;;14.44;46.31
21988;BME280;11158;53.404;-1.510;2022-10-16T10:29:47;99908.88;;;14.34;46.29
21988;BME280;11158;53.404;-1.510;2022-10-16T10:37:36;99894.47;;;14.72;45.48
21988;BME280;11158;53.404;-1.510;2022-10-16T10:43:03;99892.25;;;13.94;46.57
21988;BME280;11158;53.404;-1.510;2022-10-16T10:45:46;99895.50;;;14.28;46.35
21988;BME280;11158;53.404;-1.510;2022-10-16T10:51:12;99899.47;;;14.87;45.87
21988;BME280;11158;53.404;-1.510;2022-10-16T11:02:21;99939.66;;;15.67;43.11
21988;BME280;11158;53.404;-1.510;2022-10-16T11:05:28;99944.59;;;16.12;41.90
21988;BME280;11158;53.404;-1.510;2022-10-16T11:08:19;99970.38;;;15.97;41.60
21988;BME280;11158;53.404;-1.510;2022-10-16T11:11:03;99975.22;;;14.65;43.64
21988;BME280;11158;53.404;-1.510;2022-10-16T11:13:38;99971.22;;;14.93;43.14
21988;BME280;11158;53.404;-1.510;2022-10-16T11:16:18;99971.00;;;14.95;43.12
21988;BME280;11158;53.404;-1.510;2022-10-16T11:21:21;99974.16;;;15.28;42.06
21988;BME280;11158;53.404;-1.510;2022-10-16T11:24:01;99972.56;;;15.58;41.83
21988;BME280;11158;53.404;-1.510;2022-10-16T11:26:35;99971.38;;;15.84;41.30
21988;BME280;11158;53.404;-1.510;2022-10-16T11:29:12;99964.03;;;15.42;41.73
21988;BME280;11158;53.404;-1.510;2022-10-16T11:31:44;99959.34;;;14.82;42.32
21988;BME280;11158;53.404;-1.510;2022-10-16T11:34:28;99961.66;;;14.54;41.86
21988;BME280;11158;53.404;-1.510;2022-10-16T11:37:11;99952.38;;;15.30;41.81
21988;BME280;11158;53.404;-1.510;2022-10-16T11:39:38;99942.59;;;15.96;40.50
21988;BME280;11158;53.404;-1.510;2022-10-16T11:42:19;99943.13;;;15.56;41.80
21988;BME280;11158;53.404;-1.510;2022-10-16T11:45:08;99940.56;;;15.61;40.83
21988;BME280;11158;53.404;-1.510;2022-10-16T11:47:44;99945.47;;;15.34;40.75
21988;BME280;11158;53.404;-1.510;2022-10-16T11:53:13;99942.25;;;15.93;40.02
21988;BME280;11158;53.404;-1.510;2022-10-16T11:55:41;99934.47;;;16.26;39.44
21988;BME280;11158;53.404;-1.510;2022-10-16T11:58:32;99947.13;;;16.61;38.61
21988;BME280;11158;53.404;-1.510;2022-10-16T12:01:13;99951.69;;;16.37;37.64
21988;BME280;11158;53.404;-1.510;2022-10-16T12:03:48;99958.13;;;16.24;37.55
21988;BME280;11158;53.404;-1.510;2022-10-16T12:09:05;99945.25;;;17.09;36.01
21988;BME280;11158;53.404;-1.510;2022-10-16T12:11:36;99941.31;;;17.57;35.24
21988;BME280;11158;53.404;-1.510;2022-10-16T12:14:18;99937.41;;;17.65;35.00
21988;BME280;11158;53.404;-1.510;2022-10-16T12:16:54;99943.38;;;17.95;33.97
21988;BME280;11158;53.404;-1.510;2022-10-16T12:19:21;99945.72;;;18.37;32.84
21988;BME280;11158;53.404;-1.510;2022-10-16T12:21:47;99950.25;;;18.71;32.28
21988;BME280;11158;53.404;-1.510;2022-10-16T12:26:55;99947.84;;;19.08;32.41
21988;BME280;11158;53.404;-1.510;2022-10-16T12:31:48;99951.25;;;17.97;32.45
21988;BME280;11158;53.404;-1.510;2022-10-16T12:34:26;99958.78;;;17.37;34.63
21988;BME280;11158;53.404;-1.510;2022-10-16T12:36:54;99963.19;;;17.84;33.99
21988;BME280;11158;53.404;-1.510;2022-10-16T12:39:24;99957.38;;;17.64;32.80
21988;BME280;11158;53.404;-1.510;2022-10-16T12:42:03;99972.78;;;17.23;33.64
21988;BME280;11158;53.404;-1.510;2022-10-16T12:44:35;99975.47;;;17.34;33.94
21988;BME280;11158;53.404;-1.510;2022-10-16T12:47:01;99973.13;;;17.26;34.59
21988;BME280;11158;53.404;-1.510;2022-10-16T12:49:37;99969.38;;;17.15;34.19
21988;BME280;11158;53.404;-1.510;2022-10-16T12:52:25;99977.13;;;17.93;33.39
21988;BME280;11158;53.404;-1.510;2022-10-16T12:54:58;99973.41;;;18.11;32.91
21988;BME280;11158;53.404;-1.510;2022-10-16T13:02:39;99978.81;;;18.45;32.97
21988;BME280;11158;53.404;-1.510;2022-10-16T13:28:49;99981.34;;;19.46;31.38
21988;BME280;11158;53.404;-1.510;2022-10-16T13:31:24;99974.63;;;19.54;31.24
21988;BME280;11158;53.404;-1.510;2022-10-16T13:33:55;99972.91;;;19.92;30.96
21988;BME280;11158;53.404;-1.510;2022-10-16T13:36:26;99962.81;;;20.14;30.79
21988;BME280;11158;53.404;-1.510;2022-10-16T13:41:31;99965.41;;;20.36;31.00
21988;BME280;11158;53.404;-1.510;2022-10-16T13:43:57;99963.09;;;20.18;31.67
21988;BME280;11158;53.404;-1.510;2022-10-16T13:46:24;99963.75;;;19.71;32.48
21988;BME280;11158;53.404;-1.510;2022-10-16T13:48:59;99977.34;;;18.88;33.34
21988;BME280;11158;53.404;-1.510;2022-10-16T13:51:26;99960.78;;;18.33;33.71
21988;BME280;11158;53.404;-1.510;2022-10-16T13:53:52;99962.91;;;18.48;33.60
21988;BME280;11158;53.404;-1.510;2022-10-16T13:56:22;99953.03;;;19.37;33.13
21988;BME280;11158;53.404;-1.510;2022-10-16T13:59:02;99961.66;;;19.56;32.38
21988;BME280;11158;53.404;-1.510;2022-10-16T14:01:30;99964.84;;;20.02;31.44
21988;BME280;11158;53.404;-1.510;2022-10-16T14:04:08;99965.16;;;20.05;32.13
21988;BME280;11158;53.404;-1.510;2022-10-16T14:06:39;99968.63;;;19.96;31.92
21988;BME280;11158;53.404;-1.510;2022-10-16T14:11:49;99982.22;;;19.52;32.91
21988;BME280;11158;53.404;-1.510;2022-10-16T14:14:18;99971.34;;;19.24;33.29
21988;BME280;11158;53.404;-1.510;2022-10-16T14:16:44;99969.47;;;19.74;32.73
21988;BME280;11158;53.404;-1.510;2022-10-16T14:19:30;99970.25;;;19.03;33.44
21988;BME280;11158;53.404;-1.510;2022-10-16T14:21:56;99969.84;;;18.95;33.56
21988;BME280;11158;53.404;-1.510;2022-10-16T14:26:58;99970.81;;;19.28;33.22
21988;BME280;11158;53.404;-1.510;2022-10-16T14:29:25;99970.88;;;19.33;33.03
21988;BME280;11158;53.404;-1.510;2022-10-16T14:32:05;99983.09;;;19.13;33.93
21988;BME280;11158;53.404;-1.510;2022-10-16T14:34:36;99981.91;;;19.70;32.84
21988;BME280;11158;53.404;-1.510;2022-10-16T14:39:32;99985.25;;;20.04;32.02
21988;BME280;11158;53.404;-1.510;2022-10-16T14:41:58;99995.38;;;19.65;33.05
21988;BME280;11158;53.404;-1.510;2022-10-16T14:44:33;99998.03;;;19.16;33.36
21988;BME280;11158;53.404;-1.510;2022-10-16T14:47:15;99997.41;;;18.92;34.35
21988;BME280;11158;53.404;-1.510;2022-10-16T14:49:42;99992.91;;;18.63;34.96
21988;BME280;11158;53.404;-1.510;2022-10-16T14:52:10;99999.19;;;19.20;33.67
21988;BME280;11158;53.404;-1.510;2022-10-16T14:54:40;99992.75;;;19.70;32.29
21988;BME280;11158;53.404;-1.510;2022-10-16T14:57:16;99987.25;;;19.21;32.91